createdAt,value
2023-05-14T00:01:04.877Z,8.75
2023-05-14T00:03:31.539Z,8.85
2023-05-14T00:05:58.314Z,9.00
2023-05-14T00:08:25.045Z,9.00
2023-05-14T00:10:52.115Z,8.35
2023-05-14T00:13:18.727Z,8.18
2023-05-14T00:15:45.524Z,8.55
2023-05-14T00:18:12.435Z,8.82
2023-05-14T00:20:39.228Z,8.93
2023-05-14T00:23:05.998Z,8.23
2023-05-14T00:25:32.747Z,8.55
2023-05-14T00:28:00.706Z,8.05
2023-05-14T00:30:27.309Z,8.13
2023-05-14T00:32:54.055Z,8.75
2023-05-14T00:35:21.570Z,8.10
2023-05-14T00:37:48.411Z,7.47
2023-05-14T00:40:15.566Z,8.25
2023-05-14T00:42:42.198Z,7.80
2023-05-14T00:45:09.255Z,7.45
2023-05-14T00:47:36.461Z,7.22
2023-05-14T00:50:04.107Z,7.22
2023-05-14T00:52:32.149Z,7.60
2023-05-14T00:54:59.433Z,7.65
2023-05-14T00:57:26.343Z,7.47
2023-05-14T00:59:53.243Z,7.70
2023-05-14T01:02:19.916Z,7.13
2023-05-14T01:04:46.627Z,7.15
2023-05-14T01:07:40.962Z,7.05
2023-05-14T01:10:26.454Z,7.78
2023-05-14T01:13:04.091Z,7.55
2023-05-14T01:15:36.081Z,7.13
2023-05-14T01:18:10.408Z,7.20
2023-05-14T01:20:37.192Z,6.82
2023-05-14T01:23:03.863Z,7.07
2023-05-14T01:25:31.653Z,6.80
2023-05-14T01:28:17.980Z,7.55
2023-05-14T01:30:57.354Z,6.60
2023-05-14T01:33:27.507Z,7.07
2023-05-14T01:35:55.326Z,7.18
2023-05-14T01:38:22.830Z,7.07
2023-05-14T01:40:50.894Z,7.05
2023-05-14T01:43:17.677Z,7.35
2023-05-14T01:45:44.550Z,7.18
2023-05-14T01:48:11.342Z,6.97
2023-05-14T01:50:38.039Z,7.20
2023-05-14T01:53:04.772Z,6.95
2023-05-14T01:55:31.427Z,7.55
2023-05-14T01:57:58.231Z,7.32
2023-05-14T02:00:27.696Z,7.35
2023-05-14T02:02:54.348Z,7.35
2023-05-14T02:05:21.177Z,8.15
2023-05-14T02:07:47.843Z,6.57
2023-05-14T02:10:14.529Z,7.32
2023-05-14T02:12:41.263Z,8.32
2023-05-14T02:15:10.896Z,7.13
2023-05-14T02:17:37.656Z,7.45
2023-05-14T02:20:04.912Z,7.57
2023-05-14T02:22:31.630Z,8.10
2023-05-14T02:24:58.203Z,7.85
2023-05-14T02:27:25.205Z,7.47
2023-05-14T02:29:51.811Z,7.45
2023-05-14T02:32:18.433Z,7.85
2023-05-14T02:34:45.119Z,8.23
2023-05-14T02:37:11.667Z,7.75
2023-05-14T02:39:38.321Z,7.50
2023-05-14T02:42:05.200Z,7.28
2023-05-14T02:44:32.369Z,7.28
2023-05-14T02:46:59.123Z,7.35
2023-05-14T02:49:25.695Z,6.85
2023-05-14T02:51:54.260Z,7.85
2023-05-14T02:54:24.830Z,7.05
2023-05-14T02:59:18.160Z,7.35
2023-05-14T03:01:45.269Z,7.38
2023-05-14T03:04:12.558Z,8.13
2023-05-14T03:06:39.144Z,7.95
2023-05-14T03:09:05.774Z,7.38
2023-05-14T03:11:32.515Z,7.70
2023-05-14T03:13:59.119Z,7.55
2023-05-14T03:16:25.727Z,8.23
2023-05-14T03:18:52.445Z,8.15
2023-05-14T03:21:19.142Z,8.52
2023-05-14T03:23:45.821Z,8.30
2023-05-14T03:26:12.543Z,8.93
2023-05-14T03:28:40.016Z,7.88
2023-05-14T03:31:06.973Z,8.50
2023-05-14T03:33:33.827Z,7.72
2023-05-14T03:36:00.586Z,8.52
2023-05-14T03:38:27.163Z,8.75
2023-05-14T03:40:54.030Z,8.85
2023-05-14T03:43:20.607Z,8.80
2023-05-14T03:45:47.157Z,9.65
2023-05-14T03:48:13.823Z,8.90
2023-05-14T03:50:40.640Z,10.00
2023-05-14T03:53:07.216Z,9.43
2023-05-14T03:55:33.809Z,9.45
2023-05-14T03:58:00.624Z,8.98
2023-05-14T04:00:27.376Z,9.00
2023-05-14T04:02:54.417Z,8.90
2023-05-14T04:05:21.121Z,9.50
2023-05-14T04:07:47.722Z,9.15
2023-05-14T04:10:14.409Z,9.25
2023-05-14T04:12:41.052Z,9.57
2023-05-14T04:15:08.391Z,8.73
2023-05-14T04:17:35.233Z,8.77
2023-05-14T04:20:02.045Z,9.90
2023-05-14T04:22:28.665Z,8.68
2023-05-14T04:24:55.293Z,9.35
2023-05-14T04:27:22.290Z,9.00
2023-05-14T04:29:50.000Z,8.75
2023-05-14T04:32:17.653Z,9.13
2023-05-14T04:34:44.435Z,9.50
2023-05-14T04:37:11.047Z,9.55
2023-05-14T04:39:38.346Z,9.32
2023-05-14T04:42:06.605Z,9.27
2023-05-14T04:44:37.707Z,9.63
2023-05-14T04:47:04.925Z,9.82
2023-05-14T04:49:31.971Z,9.75
2023-05-14T04:51:58.507Z,10.60
2023-05-14T04:54:25.408Z,9.48
2023-05-14T04:56:52.017Z,10.77
2023-05-14T04:59:18.635Z,9.95
2023-05-14T05:01:45.995Z,10.00
2023-05-14T05:04:13.026Z,10.65
2023-05-14T05:06:39.891Z,11.52
2023-05-14T05:09:06.603Z,11.18
2023-05-14T05:11:33.282Z,11.48
2023-05-14T05:13:59.865Z,11.25
2023-05-14T05:16:26.561Z,10.80
2023-05-14T05:18:53.421Z,10.77
2023-05-14T05:21:20.109Z,10.68
2023-05-14T05:23:46.944Z,9.88
2023-05-14T05:26:13.537Z,9.20
2023-05-14T05:28:40.119Z,9.15
2023-05-14T05:31:07.163Z,9.82
2023-05-14T05:33:35.088Z,8.65
2023-05-14T05:36:01.750Z,9.20
2023-05-14T05:38:28.511Z,8.30
2023-05-14T05:40:55.434Z,8.73
2023-05-14T05:43:22.180Z,8.52
2023-05-14T05:45:48.784Z,8.40
2023-05-14T05:48:15.462Z,8.05
2023-05-14T05:50:44.313Z,7.88
2023-05-14T05:53:10.993Z,7.30
2023-05-14T05:55:37.743Z,7.63
2023-05-14T05:58:04.658Z,7.93
2023-05-14T06:00:31.502Z,7.32
2023-05-14T06:02:58.351Z,7.50
2023-05-14T06:05:25.280Z,6.38
2023-05-14T06:07:53.684Z,6.75
2023-05-14T06:10:20.689Z,5.43
2023-05-14T06:12:47.444Z,4.72
2023-05-14T06:15:14.525Z,6.25
2023-05-14T06:17:41.551Z,5.18
2023-05-14T06:20:09.071Z,4.70
2023-05-14T06:22:35.846Z,4.82
2023-05-14T06:25:02.433Z,4.57
2023-05-14T06:27:29.109Z,4.57
2023-05-14T06:29:55.951Z,4.55
2023-05-14T06:32:22.790Z,4.30
2023-05-14T06:34:49.439Z,4.20
2023-05-14T06:37:16.120Z,4.60
2023-05-14T06:39:50.073Z,5.70
2023-05-14T06:42:17.643Z,4.78
2023-05-14T06:44:44.892Z,5.50
2023-05-14T06:47:11.772Z,4.90
2023-05-14T06:49:38.940Z,4.53
2023-05-14T06:52:05.943Z,5.47
2023-05-14T06:54:32.552Z,4.70
2023-05-14T06:56:59.165Z,5.00
2023-05-14T06:59:26.376Z,5.55
2023-05-14T07:01:53.086Z,4.68
2023-05-14T07:04:19.900Z,5.82
2023-05-14T07:06:46.571Z,5.22
2023-05-14T07:09:13.372Z,5.47
2023-05-14T07:11:40.006Z,6.38
2023-05-14T07:14:06.630Z,4.13
2023-05-14T07:16:33.301Z,4.75
2023-05-14T07:18:59.940Z,4.32
2023-05-14T07:21:26.575Z,4.50
2023-05-14T07:23:53.147Z,4.20
2023-05-14T07:26:19.804Z,4.57
2023-05-14T07:28:46.356Z,4.53
2023-05-14T07:31:13.053Z,4.75
2023-05-14T07:33:39.820Z,4.97
2023-05-14T07:36:07.073Z,4.38
2023-05-14T07:38:33.960Z,4.50
2023-05-14T07:41:00.697Z,5.82
2023-05-14T07:43:27.374Z,5.78
2023-05-14T07:45:54.150Z,5.25
2023-05-14T07:48:21.005Z,4.63
2023-05-14T07:50:49.421Z,4.40
2023-05-14T07:53:16.102Z,4.60
2023-05-14T07:55:44.370Z,4.68
2023-05-14T07:58:10.976Z,4.55
2023-05-14T08:00:37.920Z,3.97
2023-05-14T08:03:05.250Z,4.50
2023-05-14T08:05:33.061Z,4.43
2023-05-14T08:07:59.715Z,5.00
2023-05-14T08:10:26.844Z,4.88
2023-05-14T08:12:53.837Z,4.85
2023-05-14T08:15:20.535Z,4.10
2023-05-14T08:17:47.299Z,4.93
2023-05-14T08:20:14.527Z,4.90
2023-05-14T08:22:41.376Z,5.20
2023-05-14T08:25:08.357Z,5.45
2023-05-14T08:27:35.157Z,4.45
2023-05-14T08:30:01.803Z,4.82
2023-05-14T08:32:28.447Z,4.75
2023-05-14T08:34:55.483Z,5.32
2023-05-14T08:37:22.092Z,5.07
2023-05-14T08:39:49.254Z,5.20
2023-05-14T08:42:20.602Z,5.10
2023-05-14T08:44:55.695Z,6.25
2023-05-14T08:47:23.963Z,4.40
2023-05-14T08:50:04.444Z,5.30
2023-05-14T08:55:00.404Z,4.93
2023-05-14T08:57:30.165Z,4.68
2023-05-14T08:59:57.224Z,5.03
2023-05-14T09:02:27.758Z,4.97
2023-05-14T09:07:22.882Z,5.63
2023-05-14T09:09:50.002Z,4.95
2023-05-14T09:12:16.873Z,5.00
2023-05-14T09:14:44.550Z,5.03
2023-05-14T09:17:12.671Z,5.20
2023-05-14T09:19:43.513Z,5.30
2023-05-14T09:22:13.505Z,5.45
2023-05-14T09:24:41.407Z,4.93
2023-05-14T09:27:09.788Z,5.80
2023-05-14T09:29:37.163Z,5.93
2023-05-14T09:32:05.677Z,5.32
2023-05-14T09:34:34.339Z,4.70
2023-05-14T09:37:05.767Z,4.80
2023-05-14T09:39:33.394Z,4.93
2023-05-14T09:42:00.171Z,5.35
2023-05-14T09:44:27.491Z,4.43
2023-05-14T09:46:54.550Z,5.45
2023-05-14T09:49:21.685Z,4.70
2023-05-14T09:51:51.479Z,5.43
2023-05-14T09:54:18.418Z,5.05
2023-05-14T09:56:45.357Z,4.95
2023-05-14T09:59:12.152Z,4.78
2023-05-14T10:01:39.514Z,4.88
2023-05-14T10:04:08.191Z,5.00
2023-05-14T10:06:39.323Z,4.93
2023-05-14T10:09:13.061Z,4.80
2023-05-14T10:11:43.809Z,5.32
2023-05-14T10:14:29.199Z,5.05
2023-05-14T10:16:59.477Z,5.38
2023-05-14T10:19:26.749Z,5.20
2023-05-14T10:21:57.237Z,5.22
2023-05-14T10:26:51.858Z,5.00
2023-05-14T10:29:18.688Z,5.50
2023-05-14T10:31:49.791Z,4.78
2023-05-14T10:34:40.862Z,4.90
2023-05-14T10:37:16.007Z,5.30
2023-05-14T10:39:44.132Z,5.95
2023-05-14T10:42:13.009Z,5.47
2023-05-14T10:44:47.192Z,6.13
2023-05-14T10:47:15.084Z,5.70
2023-05-14T10:49:44.040Z,6.22
2023-05-14T10:52:12.305Z,5.97
2023-05-14T10:54:39.128Z,5.80
2023-05-14T10:57:11.360Z,6.43
2023-05-14T10:59:41.918Z,6.00
2023-05-14T11:02:20.151Z,6.18
2023-05-14T11:05:05.852Z,6.15
2023-05-14T11:07:40.385Z,5.32
2023-05-14T11:10:12.678Z,6.13
2023-05-14T11:12:42.233Z,5.68
2023-05-14T11:15:14.721Z,5.80
2023-05-14T11:17:43.681Z,5.57
2023-05-14T11:20:11.410Z,4.90
2023-05-14T11:22:39.249Z,5.70
2023-05-14T11:25:06.754Z,5.07
2023-05-14T11:27:39.933Z,5.00
2023-05-14T11:30:17.608Z,5.07
2023-05-14T11:32:46.255Z,4.07
2023-05-14T11:35:13.923Z,3.45
2023-05-14T11:37:40.908Z,3.72
2023-05-14T11:40:12.538Z,3.45
2023-05-14T11:42:39.339Z,3.65
2023-05-14T11:45:06.976Z,3.72
2023-05-14T11:47:33.767Z,4.18
2023-05-14T11:50:01.167Z,3.42
2023-05-14T11:52:27.952Z,3.30
2023-05-14T11:54:54.763Z,3.55
2023-05-14T11:57:22.822Z,2.97
2023-05-14T11:59:55.636Z,2.90
2023-05-14T12:02:23.076Z,3.03
2023-05-14T12:04:54.416Z,3.78
2023-05-14T12:07:21.102Z,3.13
2023-05-14T12:09:49.873Z,3.03
2023-05-14T12:12:20.155Z,3.08
2023-05-14T12:14:47.235Z,3.38
2023-05-14T12:17:18.786Z,3.53
2023-05-14T12:19:48.481Z,3.45
2023-05-14T12:22:17.576Z,2.88
2023-05-14T12:24:53.483Z,3.20
2023-05-14T12:27:24.615Z,3.15
2023-05-14T12:30:19.130Z,2.95
2023-05-14T12:32:49.023Z,3.28
2023-05-14T12:35:15.811Z,3.80
2023-05-14T12:37:43.218Z,3.35
2023-05-14T12:40:10.364Z,2.90
2023-05-14T12:42:37.460Z,3.28
2023-05-14T12:45:07.246Z,3.00
2023-05-14T12:47:34.527Z,3.00
2023-05-14T12:50:01.529Z,3.28
2023-05-14T12:52:37.529Z,3.33
2023-05-14T12:55:07.287Z,3.50
2023-05-14T12:57:35.668Z,2.83
2023-05-14T13:00:06.898Z,3.10
2023-05-14T13:02:42.578Z,2.85
2023-05-14T13:05:11.194Z,2.90
2023-05-14T13:07:38.228Z,2.90
2023-05-14T13:10:08.505Z,3.15
2023-05-14T13:12:35.208Z,3.10
2023-05-14T13:15:02.109Z,2.75
2023-05-14T13:17:28.788Z,3.08
2023-05-14T13:19:55.582Z,3.28
2023-05-14T13:22:22.307Z,3.03
2023-05-14T13:24:48.843Z,3.10
2023-05-14T13:27:15.521Z,3.33
2023-05-14T13:29:42.316Z,3.08
2023-05-14T13:32:09.019Z,2.90
2023-05-14T13:34:36.307Z,3.05
2023-05-14T13:37:03.234Z,3.08
2023-05-14T13:39:29.812Z,2.80
2023-05-14T13:41:57.016Z,2.70
2023-05-14T13:44:24.319Z,2.85
2023-05-14T13:46:51.122Z,2.95
2023-05-14T13:49:17.910Z,3.10
2023-05-14T13:51:44.767Z,2.72
2023-05-14T13:54:11.718Z,2.90
2023-05-14T13:56:38.474Z,3.50
2023-05-14T13:59:05.958Z,3.00
2023-05-14T14:01:32.734Z,3.30
2023-05-14T14:03:59.527Z,2.88
2023-05-14T14:06:27.463Z,2.95
2023-05-14T14:08:54.230Z,2.97
2023-05-14T14:11:21.112Z,2.67
2023-05-14T14:13:47.796Z,2.83
2023-05-14T14:16:14.442Z,2.90
2023-05-14T14:18:43.102Z,2.65
2023-05-14T14:21:10.474Z,2.85
2023-05-14T14:23:37.195Z,3.08
2023-05-14T14:26:04.013Z,2.70
2023-05-14T14:28:31.365Z,2.85
2023-05-14T14:30:58.091Z,3.15
2023-05-14T14:33:24.927Z,2.63
2023-05-14T14:35:51.846Z,3.33
2023-05-14T14:38:18.527Z,2.75
2023-05-14T14:40:46.285Z,3.70
2023-05-14T14:43:13.062Z,3.03
2023-05-14T14:45:39.830Z,3.03
2023-05-14T14:48:26.571Z,3.03
2023-05-14T14:50:53.930Z,3.05
2023-05-14T14:53:21.639Z,2.90
2023-05-14T14:55:49.290Z,3.10
2023-05-14T14:58:16.128Z,3.17
2023-05-14T15:00:43.745Z,3.28
2023-05-14T15:03:10.581Z,3.28
2023-05-14T15:05:37.688Z,2.78
2023-05-14T15:08:04.909Z,3.03
2023-05-14T15:10:32.107Z,2.78
2023-05-14T15:12:59.522Z,2.83
2023-05-14T15:15:26.476Z,3.58
2023-05-14T15:17:53.258Z,4.10
2023-05-14T15:20:19.994Z,3.53
2023-05-14T15:22:46.732Z,3.20
2023-05-14T15:58:03.090Z,4.18
2023-05-14T16:00:29.934Z,4.45
2023-05-14T16:02:56.738Z,3.78
2023-05-14T16:05:23.595Z,4.35
2023-05-14T16:07:50.261Z,5.20
2023-05-14T16:10:16.917Z,4.13
2023-05-14T16:12:43.669Z,3.65
2023-05-14T16:15:10.757Z,4.32
2023-05-14T16:17:37.711Z,5.97
2023-05-14T16:20:05.348Z,7.07
2023-05-14T16:22:36.086Z,8.13
2023-05-14T16:25:04.434Z,8.15
2023-05-14T16:27:31.705Z,8.95
2023-05-14T16:29:58.447Z,10.10
2023-05-14T16:32:25.503Z,9.82
2023-05-14T16:34:52.314Z,9.07
2023-05-14T16:37:22.494Z,9.35
2023-05-14T16:39:49.126Z,10.38
2023-05-14T16:42:15.824Z,10.48
2023-05-14T16:44:42.387Z,10.95
2023-05-14T16:47:08.969Z,10.85
2023-05-14T16:49:35.691Z,10.07
2023-05-14T16:52:02.254Z,11.15
2023-05-14T16:54:28.914Z,11.02
2023-05-14T16:56:55.896Z,11.80
2023-05-14T16:59:22.484Z,13.10
2023-05-14T17:01:49.183Z,13.23
2023-05-14T17:04:15.981Z,13.50
2023-05-14T17:06:42.551Z,13.57
2023-05-14T17:09:09.242Z,12.45
2023-05-14T17:11:36.039Z,13.75
2023-05-14T17:14:02.681Z,13.82
2023-05-14T17:16:29.548Z,13.55
2023-05-14T17:18:56.445Z,13.82
2023-05-14T17:21:23.270Z,12.98
2023-05-14T17:23:49.885Z,13.85
2023-05-14T17:26:18.560Z,13.75
2023-05-14T17:28:45.420Z,14.02
2023-05-14T17:31:12.260Z,13.73
2023-05-14T17:33:39.034Z,14.93
2023-05-14T17:36:06.518Z,13.25
2023-05-14T17:38:33.121Z,14.75
2023-05-14T17:40:59.832Z,15.98
2023-05-14T17:43:26.406Z,14.95
2023-05-14T17:45:54.800Z,15.50
2023-05-14T17:48:22.838Z,15.15
2023-05-14T17:50:50.111Z,16.80
2023-05-14T17:53:16.866Z,16.73
2023-05-14T17:55:43.913Z,17.45
2023-05-14T17:58:13.423Z,16.98
2023-05-14T18:00:40.798Z,17.10
2023-05-14T18:03:10.892Z,18.02
2023-05-14T18:05:37.747Z,16.85
2023-05-14T18:08:04.581Z,18.38
2023-05-14T18:10:31.429Z,17.77
2023-05-14T18:12:58.254Z,18.83
2023-05-14T18:15:25.844Z,18.17
2023-05-14T18:17:53.162Z,18.10
2023-05-14T18:20:20.942Z,18.85
2023-05-14T18:22:47.803Z,18.13
2023-05-14T18:25:14.610Z,17.48
2023-05-14T18:27:45.132Z,17.33
2023-05-14T18:30:14.603Z,19.27
2023-05-14T18:32:43.696Z,18.73
2023-05-14T18:35:11.276Z,19.00
2023-05-14T18:37:37.942Z,18.60
2023-05-14T18:40:06.915Z,18.67
2023-05-14T18:42:34.759Z,19.33
2023-05-14T18:45:01.643Z,17.25
2023-05-14T18:47:28.587Z,19.00
2023-05-14T18:49:57.736Z,18.95
2023-05-14T18:52:24.808Z,19.10
2023-05-14T18:54:51.509Z,20.15
2023-05-14T18:57:18.163Z,19.30
2023-05-14T18:59:44.767Z,19.10
2023-05-14T19:02:11.494Z,19.60
2023-05-14T19:04:50.746Z,18.73
2023-05-14T19:09:45.570Z,19.95
2023-05-14T19:12:12.559Z,20.33
2023-05-14T19:14:39.254Z,20.40
2023-05-14T19:17:05.974Z,22.20
2023-05-14T19:19:32.792Z,21.08
2023-05-14T19:21:59.561Z,22.13
2023-05-14T19:24:26.127Z,21.85
2023-05-14T19:26:53.058Z,21.95
2023-05-14T19:29:19.667Z,20.65
2023-05-14T19:31:47.197Z,21.77
2023-05-14T19:34:13.979Z,21.58
2023-05-14T19:36:41.702Z,22.15
2023-05-14T19:39:08.360Z,22.25
2023-05-14T19:41:35.011Z,22.10
2023-05-14T19:44:01.612Z,22.58
2023-05-14T19:46:28.317Z,21.05
2023-05-14T19:48:54.869Z,22.67
2023-05-14T19:51:21.502Z,23.08
2023-05-14T19:53:48.160Z,24.70
2023-05-14T19:56:15.625Z,23.77
2023-05-14T19:58:42.642Z,24.30
2023-05-14T20:01:09.356Z,25.42
2023-05-14T20:03:36.181Z,23.30
2023-05-14T20:06:02.853Z,22.65
2023-05-14T20:08:29.485Z,23.25
2023-05-14T20:10:56.369Z,23.25
2023-05-14T20:13:25.059Z,22.90
2023-05-14T20:15:52.097Z,23.30
2023-05-14T20:18:18.730Z,23.27
2023-05-14T20:20:45.417Z,24.33
2023-05-14T20:23:12.152Z,24.38
2023-05-14T20:25:38.855Z,24.30
2023-05-14T20:28:05.590Z,24.40
2023-05-14T20:30:32.494Z,23.83
2023-05-14T20:32:59.713Z,26.50
2023-05-14T20:35:26.806Z,26.50
2023-05-14T20:37:53.545Z,27.13
2023-05-14T20:40:21.386Z,27.80
2023-05-14T20:42:50.364Z,27.90
2023-05-14T20:45:17.221Z,26.67
2023-05-14T20:47:44.286Z,28.70
2023-05-14T20:50:11.701Z,28.83
2023-05-14T20:52:38.373Z,28.10
2023-05-14T20:55:05.608Z,29.67
2023-05-14T20:57:32.283Z,29.67
2023-05-14T20:59:58.908Z,27.98
2023-05-14T21:02:25.711Z,28.92
2023-05-14T21:04:52.741Z,29.40
2023-05-14T21:07:19.463Z,31.05
2023-05-14T21:09:50.804Z,29.65
2023-05-14T21:12:17.416Z,29.65
2023-05-14T21:14:43.979Z,28.50
2023-05-14T21:17:10.949Z,28.95
2023-05-14T21:19:37.538Z,28.25
2023-05-14T21:22:04.274Z,27.30
2023-05-14T21:24:31.082Z,27.33
2023-05-14T21:26:57.834Z,26.98
2023-05-14T21:29:24.507Z,28.00
2023-05-14T21:31:51.150Z,26.23
2023-05-14T21:34:17.764Z,26.80
2023-05-14T22:13:13.242Z,26.83
2023-05-14T22:15:39.857Z,27.08
2023-05-14T22:18:06.967Z,26.33
2023-05-14T22:20:33.787Z,26.70
2023-05-14T22:23:00.571Z,26.27
2023-05-14T22:25:27.799Z,27.48
2023-05-14T22:27:54.551Z,28.15
2023-05-14T22:30:21.363Z,27.85
2023-05-14T22:32:48.076Z,28.83
2023-05-14T22:35:14.979Z,29.35
2023-05-14T22:37:41.807Z,31.15
2023-05-14T22:40:09.152Z,29.13
2023-05-14T22:42:36.149Z,27.75
2023-05-14T22:45:03.051Z,28.70
2023-05-14T22:47:29.720Z,28.58
2023-05-14T22:49:56.586Z,28.30
2023-05-14T22:52:23.176Z,28.42
2023-05-14T22:54:51.058Z,30.35
2023-05-14T22:57:18.021Z,29.55
2023-05-14T22:59:44.639Z,28.75
2023-05-14T23:02:11.355Z,29.48
2023-05-14T23:04:38.155Z,27.50
2023-05-14T23:07:05.074Z,29.10
2023-05-14T23:09:31.605Z,29.02
2023-05-14T23:11:58.269Z,30.42
2023-05-14T23:14:24.871Z,27.70
2023-05-14T23:16:51.480Z,28.48
2023-05-14T23:19:18.421Z,27.73
2023-05-14T23:21:45.010Z,29.58
2023-05-14T23:24:11.613Z,27.63
2023-05-14T23:26:38.601Z,28.42
2023-05-14T23:29:05.181Z,29.08
2023-05-14T23:31:32.249Z,28.77
2023-05-14T23:33:59.018Z,27.20
2023-05-14T23:36:25.627Z,28.33
2023-05-14T23:38:52.495Z,30.35
2023-05-14T23:41:19.305Z,28.63
2023-05-14T23:43:45.916Z,28.15
2023-05-14T23:46:13.069Z,28.55
2023-05-14T23:48:39.750Z,28.70
2023-05-14T23:51:06.364Z,27.75
2023-05-14T23:53:32.926Z,28.52
2023-05-14T23:55:59.689Z,27.80
2023-05-14T23:58:26.393Z,28.83
